sensor_id;sensor_type;location;lat;lon;timestamp;P1;durP1;ratioP1;P2;durP2;ratioP2
7263;SDS011;3673;52.480;13.348;2023-02-01T00:00:29;16.48;;;3.90;;
7263;SDS011;3673;52.480;13.348;2023-02-01T00:02:58;23.45;;;3.42;;
7263;SDS011;3673;52.480;13.348;2023-02-01T00:05:26;21.73;;;4.72;;
7263;SDS011;3673;52.480;13.348;2023-02-01T00:07:52;21.27;;;3.03;;
7263;SDS011;3673;52.480;13.348;2023-02-01T00:10:19;20.08;;;3.35;;
7263;SDS011;3673;52.480;13.348;2023-02-01T00:12:46;24.60;;;4.57;;
7263;SDS011;3673;52.480;13.348;2023-02-01T00:15:12;10.07;;;2.55;;
7263;SDS011;3673;52.480;13.348;2023-02-01T00:17:40;24.55;;;3.53;;
7263;SDS011;3673;52.480;13.348;2023-02-01T00:20:07;13.35;;;3.00;;
7263;SDS011;3673;52.480;13.348;2023-02-01T00:22:37;16.70;;;3.42;;
7263;SDS011;3673;52.480;13.348;2023-02-01T00:25:04;19.13;;;3.30;;
7263;SDS011;3673;52.480;13.348;2023-02-01T00:27:32;21.38;;;3.22;;
7263;SDS011;3673;52.480;13.348;2023-02-01T00:29:59;17.38;;;3.20;;
7263;SDS011;3673;52.480;13.348;2023-02-01T00:32:25;27.05;;;3.60;;
7263;SDS011;3673;52.480;13.348;2023-02-01T00:34:52;19.23;;;3.47;;
7263;SDS011;3673;52.480;13.348;2023-02-01T00:37:19;16.63;;;3.17;;
7263;SDS011;3673;52.480;13.348;2023-02-01T00:39:47;16.35;;;3.53;;
7263;SDS011;3673;52.480;13.348;2023-02-01T00:42:15;15.20;;;3.92;;
7263;SDS011;3673;52.480;13.348;2023-02-01T00:44:42;21.48;;;3.25;;
7263;SDS011;3673;52.480;13.348;2023-02-01T00:47:08;14.70;;;2.75;;
7263;SDS011;3673;52.480;13.348;2023-02-01T00:49:35;14.52;;;2.70;;
7263;SDS011;3673;52.480;13.348;2023-02-01T00:52:02;16.10;;;3.10;;
7263;SDS011;3673;52.480;13.348;2023-02-01T00:54:29;11.13;;;2.17;;
7263;SDS011;3673;52.480;13.348;2023-02-01T00:56:58;9.98;;;2.33;;
7263;SDS011;3673;52.480;13.348;2023-02-01T00:59:25;14.05;;;2.70;;
7263;SDS011;3673;52.480;13.348;2023-02-01T01:01:52;17.25;;;3.00;;
7263;SDS011;3673;52.480;13.348;2023-02-01T01:04:18;13.85;;;2.10;;
7263;SDS011;3673;52.480;13.348;2023-02-01T01:06:45;16.73;;;2.80;;
7263;SDS011;3673;52.480;13.348;2023-02-01T01:09:12;12.35;;;2.75;;
7263;SDS011;3673;52.480;13.348;2023-02-01T01:11:39;14.27;;;2.85;;
7263;SDS011;3673;52.480;13.348;2023-02-01T01:14:09;13.13;;;2.20;;
7263;SDS011;3673;52.480;13.348;2023-02-01T01:16:37;18.58;;;2.72;;
7263;SDS011;3673;52.480;13.348;2023-02-01T01:19:04;11.82;;;2.38;;
7263;SDS011;3673;52.480;13.348;2023-02-01T01:21:31;17.70;;;2.78;;
7263;SDS011;3673;52.480;13.348;2023-02-01T01:23:58;13.63;;;2.58;;
7263;SDS011;3673;52.480;13.348;2023-02-01T01:26:26;14.27;;;2.50;;
7263;SDS011;3673;52.480;13.348;2023-02-01T01:28:55;16.50;;;2.45;;
7263;SDS011;3673;52.480;13.348;2023-02-01T01:31:25;16.45;;;2.50;;
7263;SDS011;3673;52.480;13.348;2023-02-01T01:33:52;16.20;;;2.88;;
7263;SDS011;3673;52.480;13.348;2023-02-01T01:36:22;14.95;;;2.45;;
7263;SDS011;3673;52.480;13.348;2023-02-01T01:38:50;13.32;;;2.80;;
7263;SDS011;3673;52.480;13.348;2023-02-01T01:41:18;20.75;;;3.25;;
7263;SDS011;3673;52.480;13.348;2023-02-01T01:43:49;20.33;;;3.08;;
7263;SDS011;3673;52.480;13.348;2023-02-01T01:46:20;17.88;;;2.47;;
7263;SDS011;3673;52.480;13.348;2023-02-01T01:48:51;15.77;;;2.80;;
7263;SDS011;3673;52.480;13.348;2023-02-01T01:51:24;14.00;;;2.90;;
7263;SDS011;3673;52.480;13.348;2023-02-01T01:53:56;13.10;;;2.58;;
7263;SDS011;3673;52.480;13.348;2023-02-01T01:56:27;18.02;;;3.75;;
7263;SDS011;3673;52.480;13.348;2023-02-01T01:58:56;13.40;;;3.40;;
7263;SDS011;3673;52.480;13.348;2023-02-01T02:01:24;17.00;;;3.35;;
7263;SDS011;3673;52.480;13.348;2023-02-01T02:03:52;15.68;;;2.70;;
7263;SDS011;3673;52.480;13.348;2023-02-01T02:06:23;18.67;;;2.97;;
7263;SDS011;3673;52.480;13.348;2023-02-01T02:08:59;14.43;;;3.35;;
7263;SDS011;3673;52.480;13.348;2023-02-01T02:11:25;15.27;;;3.20;;
7263;SDS011;3673;52.480;13.348;2023-02-01T02:13:53;20.05;;;2.97;;
7263;SDS011;3673;52.480;13.348;2023-02-01T02:16:26;34.25;;;3.72;;
7263;SDS011;3673;52.480;13.348;2023-02-01T02:19:21;20.35;;;3.63;;
7263;SDS011;3673;52.480;13.348;2023-02-01T02:22:25;18.13;;;3.13;;
7263;SDS011;3673;52.480;13.348;2023-02-01T02:25:21;18.83;;;3.30;;
7263;SDS011;3673;52.480;13.348;2023-02-01T02:28:28;16.88;;;2.88;;
7263;SDS011;3673;52.480;13.348;2023-02-01T02:31:30;18.98;;;3.72;;
7263;SDS011;3673;52.480;13.348;2023-02-01T02:34:23;15.15;;;2.80;;
7263;SDS011;3673;52.480;13.348;2023-02-01T02:36:55;20.80;;;3.00;;
7263;SDS011;3673;52.480;13.348;2023-02-01T02:39:34;17.95;;;3.60;;
7263;SDS011;3673;52.480;13.348;2023-02-01T02:42:16;20.23;;;3.17;;
7263;SDS011;3673;52.480;13.348;2023-02-01T02:45:09;19.90;;;3.10;;
7263;SDS011;3673;52.480;13.348;2023-02-01T02:48:04;24.38;;;3.30;;
7263;SDS011;3673;52.480;13.348;2023-02-01T02:50:41;18.98;;;2.88;;
7263;SDS011;3673;52.480;13.348;2023-02-01T02:53:31;18.77;;;2.80;;
7263;SDS011;3673;52.480;13.348;2023-02-01T02:56:21;15.73;;;3.63;;
7263;SDS011;3673;52.480;13.348;2023-02-01T02:59:08;16.02;;;2.83;;
7263;SDS011;3673;52.480;13.348;2023-02-01T03:01:56;19.67;;;3.28;;
7263;SDS011;3673;52.480;13.348;2023-02-01T03:04:41;18.05;;;2.95;;
7263;SDS011;3673;52.480;13.348;2023-02-01T03:07:12;18.33;;;2.60;;
7263;SDS011;3673;52.480;13.348;2023-02-01T03:10:03;20.45;;;3.42;;
7263;SDS011;3673;52.480;13.348;2023-02-01T03:12:34;21.23;;;2.97;;
7263;SDS011;3673;52.480;13.348;2023-02-01T03:15:21;11.38;;;2.30;;
7263;SDS011;3673;52.480;13.348;2023-02-01T03:17:55;21.10;;;3.08;;
7263;SDS011;3673;52.480;13.348;2023-02-01T03:20:24;16.33;;;3.03;;
7263;SDS011;3673;52.480;13.348;2023-02-01T03:22:52;11.65;;;3.25;;
7263;SDS011;3673;52.480;13.348;2023-02-01T03:25:21;22.95;;;2.80;;
7263;SDS011;3673;52.480;13.348;2023-02-01T03:27:53;17.45;;;3.05;;
7263;SDS011;3673;52.480;13.348;2023-02-01T03:30:27;25.42;;;3.83;;
7263;SDS011;3673;52.480;13.348;2023-02-01T03:32:58;20.77;;;3.80;;
7263;SDS011;3673;52.480;13.348;2023-02-01T03:35:30;14.38;;;2.97;;
7263;SDS011;3673;52.480;13.348;2023-02-01T03:38:08;18.65;;;3.13;;
7263;SDS011;3673;52.480;13.348;2023-02-01T03:40:41;19.67;;;3.00;;
7263;SDS011;3673;52.480;13.348;2023-02-01T03:43:11;14.18;;;2.88;;
7263;SDS011;3673;52.480;13.348;2023-02-01T03:45:44;20.70;;;2.97;;
7263;SDS011;3673;52.480;13.348;2023-02-01T03:48:16;20.42;;;3.35;;
7263;SDS011;3673;52.480;13.348;2023-02-01T03:50:46;27.88;;;3.17;;
7263;SDS011;3673;52.480;13.348;2023-02-01T03:53:19;25.65;;;3.45;;
7263;SDS011;3673;52.480;13.348;2023-02-01T03:55:50;18.02;;;3.42;;
7263;SDS011;3673;52.480;13.348;2023-02-01T03:58:20;20.05;;;3.45;;
7263;SDS011;3673;52.480;13.348;2023-02-01T04:00:50;19.20;;;2.75;;
7263;SDS011;3673;52.480;13.348;2023-02-01T04:03:19;18.15;;;2.63;;
7263;SDS011;3673;52.480;13.348;2023-02-01T04:05:47;21.25;;;3.80;;
7263;SDS011;3673;52.480;13.348;2023-02-01T04:08:14;16.35;;;3.13;;
7263;SDS011;3673;52.480;13.348;2023-02-01T04:10:41;24.17;;;3.58;;
7263;SDS011;3673;52.480;13.348;2023-02-01T04:13:10;22.17;;;3.88;;
7263;SDS011;3673;52.480;13.348;2023-02-01T04:15:37;17.48;;;3.00;;
7263;SDS011;3673;52.480;13.348;2023-02-01T04:18:04;19.27;;;3.53;;
7263;SDS011;3673;52.480;13.348;2023-02-01T04:20:31;23.65;;;3.25;;
7263;SDS011;3673;52.480;13.348;2023-02-01T04:22:58;19.65;;;4.63;;
7263;SDS011;3673;52.480;13.348;2023-02-01T04:25:27;19.27;;;3.70;;
7263;SDS011;3673;52.480;13.348;2023-02-01T04:27:54;12.30;;;2.95;;
7263;SDS011;3673;52.480;13.348;2023-02-01T04:30:22;23.70;;;3.70;;
7263;SDS011;3673;52.480;13.348;2023-02-01T04:32:49;24.50;;;3.78;;
7263;SDS011;3673;52.480;13.348;2023-02-01T04:35:16;25.02;;;3.70;;
7263;SDS011;3673;52.480;13.348;2023-02-01T04:37:42;19.35;;;3.92;;
7263;SDS011;3673;52.480;13.348;2023-02-01T04:40:10;19.58;;;3.78;;
7263;SDS011;3673;52.480;13.348;2023-02-01T04:42:37;16.45;;;3.30;;
7263;SDS011;3673;52.480;13.348;2023-02-01T04:45:05;23.98;;;3.38;;
7263;SDS011;3673;52.480;13.348;2023-02-01T04:47:35;16.23;;;2.97;;
7263;SDS011;3673;52.480;13.348;2023-02-01T04:50:01;18.30;;;3.35;;
7263;SDS011;3673;52.480;13.348;2023-02-01T04:52:30;20.23;;;3.20;;
7263;SDS011;3673;52.480;13.348;2023-02-01T04:54:57;12.10;;;3.25;;
7263;SDS011;3673;52.480;13.348;2023-02-01T04:57:25;17.35;;;3.42;;
7263;SDS011;3673;52.480;13.348;2023-02-01T04:59:52;19.98;;;3.95;;
7263;SDS011;3673;52.480;13.348;2023-02-01T05:02:18;26.20;;;4.10;;
7263;SDS011;3673;52.480;13.348;2023-02-01T05:04:47;15.57;;;3.15;;
7263;SDS011;3673;52.480;13.348;2023-02-01T05:07:13;22.95;;;2.78;;
7263;SDS011;3673;52.480;13.348;2023-02-01T05:09:40;14.88;;;2.88;;
7263;SDS011;3673;52.480;13.348;2023-02-01T05:12:07;15.02;;;3.80;;
7263;SDS011;3673;52.480;13.348;2023-02-01T05:14:53;21.88;;;3.58;;
7263;SDS011;3673;52.480;13.348;2023-02-01T05:17:20;26.40;;;3.08;;
7263;SDS011;3673;52.480;13.348;2023-02-01T05:19:48;21.00;;;2.70;;
7263;SDS011;3673;52.480;13.348;2023-02-01T05:22:15;21.25;;;3.33;;
7263;SDS011;3673;52.480;13.348;2023-02-01T05:24:42;24.52;;;4.90;;
7263;SDS011;3673;52.480;13.348;2023-02-01T05:27:08;16.52;;;2.95;;
7263;SDS011;3673;52.480;13.348;2023-02-01T05:29:35;20.02;;;3.10;;
7263;SDS011;3673;52.480;13.348;2023-02-01T05:32:02;18.63;;;3.60;;
7263;SDS011;3673;52.480;13.348;2023-02-01T05:34:29;17.13;;;3.17;;
7263;SDS011;3673;52.480;13.348;2023-02-01T05:36:57;19.73;;;3.17;;
7263;SDS011;3673;52.480;13.348;2023-02-01T05:39:24;24.88;;;4.15;;
7263;SDS011;3673;52.480;13.348;2023-02-01T05:41:50;22.52;;;3.67;;
7263;SDS011;3673;52.480;13.348;2023-02-01T05:44:17;22.85;;;3.33;;
7263;SDS011;3673;52.480;13.348;2023-02-01T05:46:44;21.05;;;3.40;;
7263;SDS011;3673;52.480;13.348;2023-02-01T05:49:11;25.77;;;4.05;;
7263;SDS011;3673;52.480;13.348;2023-02-01T05:51:37;13.52;;;3.42;;
7263;SDS011;3673;52.480;13.348;2023-02-01T05:54:05;23.90;;;3.88;;
7263;SDS011;3673;52.480;13.348;2023-02-01T05:56:34;16.67;;;3.25;;
7263;SDS011;3673;52.480;13.348;2023-02-01T05:59:00;16.17;;;3.10;;
7263;SDS011;3673;52.480;13.348;2023-02-01T06:01:27;18.90;;;4.18;;
7263;SDS011;3673;52.480;13.348;2023-02-01T06:03:54;16.77;;;3.33;;
7263;SDS011;3673;52.480;13.348;2023-02-01T06:06:20;20.20;;;3.13;;
7263;SDS011;3673;52.480;13.348;2023-02-01T06:08:47;20.00;;;4.50;;
7263;SDS011;3673;52.480;13.348;2023-02-01T06:11:15;27.48;;;3.95;;
7263;SDS011;3673;52.480;13.348;2023-02-01T06:13:42;16.58;;;3.75;;
7263;SDS011;3673;52.480;13.348;2023-02-01T06:16:09;22.70;;;3.83;;
7263;SDS011;3673;52.480;13.348;2023-02-01T06:18:36;22.95;;;3.63;;
7263;SDS011;3673;52.480;13.348;2023-02-01T06:21:02;20.98;;;3.75;;
7263;SDS011;3673;52.480;13.348;2023-02-01T06:23:30;19.98;;;3.25;;
7263;SDS011;3673;52.480;13.348;2023-02-01T06:26:00;16.80;;;4.20;;
7263;SDS011;3673;52.480;13.348;2023-02-01T06:28:31;34.08;;;6.95;;
7263;SDS011;3673;52.480;13.348;2023-02-01T06:31:02;29.70;;;5.88;;
7263;SDS011;3673;52.480;13.348;2023-02-01T06:33:31;22.75;;;3.47;;
7263;SDS011;3673;52.480;13.348;2023-02-01T06:35:59;10.38;;;3.08;;
7263;SDS011;3673;52.480;13.348;2023-02-01T06:38:28;30.55;;;3.78;;
7263;SDS011;3673;52.480;13.348;2023-02-01T06:40:56;18.70;;;3.17;;
7263;SDS011;3673;52.480;13.348;2023-02-01T06:43:24;19.67;;;3.20;;
7263;SDS011;3673;52.480;13.348;2023-02-01T06:45:53;18.55;;;3.03;;
7263;SDS011;3673;52.480;13.348;2023-02-01T06:48:26;21.80;;;3.50;;
7263;SDS011;3673;52.480;13.348;2023-02-01T06:50:53;21.48;;;4.50;;
7263;SDS011;3673;52.480;13.348;2023-02-01T06:53:20;25.30;;;5.25;;
7263;SDS011;3673;52.480;13.348;2023-02-01T06:55:53;16.33;;;3.42;;
7263;SDS011;3673;52.480;13.348;2023-02-01T06:58:20;18.95;;;4.20;;
7263;SDS011;3673;52.480;13.348;2023-02-01T07:00:47;23.63;;;3.25;;
7263;SDS011;3673;52.480;13.348;2023-02-01T07:03:16;21.48;;;4.18;;
7263;SDS011;3673;52.480;13.348;2023-02-01T07:05:43;19.17;;;3.88;;
7263;SDS011;3673;52.480;13.348;2023-02-01T07:08:10;15.25;;;3.38;;
7263;SDS011;3673;52.480;13.348;2023-02-01T07:10:36;18.95;;;3.20;;
7263;SDS011;3673;52.480;13.348;2023-02-01T07:13:04;11.60;;;3.60;;
7263;SDS011;3673;52.480;13.348;2023-02-01T07:15:31;20.88;;;3.22;;
7263;SDS011;3673;52.480;13.348;2023-02-01T07:17:57;18.77;;;2.95;;
7263;SDS011;3673;52.480;13.348;2023-02-01T07:20:26;19.33;;;4.28;;
7263;SDS011;3673;52.480;13.348;2023-02-01T07:22:54;14.43;;;3.75;;
7263;SDS011;3673;52.480;13.348;2023-02-01T07:25:22;19.23;;;4.18;;
7263;SDS011;3673;52.480;13.348;2023-02-01T07:27:49;20.63;;;3.55;;
7263;SDS011;3673;52.480;13.348;2023-02-01T07:30:16;17.67;;;3.33;;
7263;SDS011;3673;52.480;13.348;2023-02-01T07:32:43;15.52;;;4.22;;
7263;SDS011;3673;52.480;13.348;2023-02-01T07:35:10;12.45;;;3.00;;
7263;SDS011;3673;52.480;13.348;2023-02-01T07:37:40;15.73;;;4.00;;
7263;SDS011;3673;52.480;13.348;2023-02-01T07:40:07;18.95;;;3.40;;
7263;SDS011;3673;52.480;13.348;2023-02-01T07:42:36;13.10;;;3.10;;
7263;SDS011;3673;52.480;13.348;2023-02-01T07:45:03;16.80;;;3.70;;
7263;SDS011;3673;52.480;13.348;2023-02-01T07:47:31;15.18;;;2.80;;
7263;SDS011;3673;52.480;13.348;2023-02-01T07:49:57;25.35;;;3.78;;
7263;SDS011;3673;52.480;13.348;2023-02-01T07:52:27;14.80;;;3.58;;
7263;SDS011;3673;52.480;13.348;2023-02-01T07:54:55;15.80;;;3.67;;
7263;SDS011;3673;52.480;13.348;2023-02-01T07:57:22;17.48;;;3.63;;
7263;SDS011;3673;52.480;13.348;2023-02-01T07:59:48;13.52;;;3.38;;
7263;SDS011;3673;52.480;13.348;2023-02-01T08:02:33;19.67;;;3.58;;
7263;SDS011;3673;52.480;13.348;2023-02-01T08:05:00;27.10;;;4.45;;
7263;SDS011;3673;52.480;13.348;2023-02-01T08:07:27;15.82;;;3.30;;
7263;SDS011;3673;52.480;13.348;2023-02-01T08:09:55;14.80;;;3.33;;
7263;SDS011;3673;52.480;13.348;2023-02-01T08:12:21;14.57;;;3.70;;
7263;SDS011;3673;52.480;13.348;2023-02-01T08:14:48;29.42;;;10.60;;
7263;SDS011;3673;52.480;13.348;2023-02-01T08:17:15;10.50;;;2.80;;
7263;SDS011;3673;52.480;13.348;2023-02-01T08:19:42;14.43;;;3.58;;
7263;SDS011;3673;52.480;13.348;2023-02-01T08:22:08;14.88;;;3.30;;
7263;SDS011;3673;52.480;13.348;2023-02-01T08:24:35;15.93;;;3.13;;
7263;SDS011;3673;52.480;13.348;2023-02-01T08:27:05;12.73;;;3.42;;
7263;SDS011;3673;52.480;13.348;2023-02-01T08:29:32;13.55;;;3.60;;
7263;SDS011;3673;52.480;13.348;2023-02-01T08:31:59;20.60;;;6.38;;
7263;SDS011;3673;52.480;13.348;2023-02-01T08:34:25;11.10;;;3.75;;
7263;SDS011;3673;52.480;13.348;2023-02-01T08:36:52;11.85;;;3.53;;
7263;SDS011;3673;52.480;13.348;2023-02-01T08:39:23;12.73;;;3.35;;
7263;SDS011;3673;52.480;13.348;2023-02-01T08:41:50;20.48;;;4.65;;
7263;SDS011;3673;52.480;13.348;2023-02-01T08:44:32;14.55;;;3.75;;
7263;SDS011;3673;52.480;13.348;2023-02-01T08:46:59;13.32;;;3.30;;
7263;SDS011;3673;52.480;13.348;2023-02-01T08:49:26;7.45;;;2.65;;
7263;SDS011;3673;52.480;13.348;2023-02-01T08:51:53;18.38;;;5.57;;
7263;SDS011;3673;52.480;13.348;2023-02-01T08:54:20;13.45;;;4.15;;
7263;SDS011;3673;52.480;13.348;2023-02-01T08:56:47;37.15;;;20.60;;
7263;SDS011;3673;52.480;13.348;2023-02-01T08:59:13;16.45;;;5.40;;
7263;SDS011;3673;52.480;13.348;2023-02-01T09:01:42;7.72;;;3.45;;
7263;SDS011;3673;52.480;13.348;2023-02-01T09:04:08;9.73;;;3.08;;
7263;SDS011;3673;52.480;13.348;2023-02-01T09:06:35;10.93;;;3.33;;
7263;SDS011;3673;52.480;13.348;2023-02-01T09:09:02;10.27;;;4.50;;
7263;SDS011;3673;52.480;13.348;2023-02-01T09:11:29;4.70;;;1.48;;
7263;SDS011;3673;52.480;13.348;2023-02-01T09:13:55;12.55;;;3.45;;
7263;SDS011;3673;52.480;13.348;2023-02-01T09:16:22;8.15;;;3.10;;
7263;SDS011;3673;52.480;13.348;2023-02-01T09:18:50;8.40;;;2.17;;
7263;SDS011;3673;52.480;13.348;2023-02-01T09:21:17;3.92;;;1.67;;
7263;SDS011;3673;52.480;13.348;2023-02-01T09:23:44;8.05;;;1.92;;
7263;SDS011;3673;52.480;13.348;2023-02-01T09:26:13;13.30;;;2.83;;
7263;SDS011;3673;52.480;13.348;2023-02-01T09:28:40;7.82;;;2.20;;
7263;SDS011;3673;52.480;13.348;2023-02-01T09:31:07;4.28;;;1.75;;
7263;SDS011;3673;52.480;13.348;2023-02-01T09:33:34;4.47;;;1.90;;
7263;SDS011;3673;52.480;13.348;2023-02-01T09:36:03;5.88;;;2.05;;
7263;SDS011;3673;52.480;13.348;2023-02-01T09:38:31;14.52;;;4.15;;
7263;SDS011;3673;52.480;13.348;2023-02-01T09:40:58;6.60;;;2.03;;
7263;SDS011;3673;52.480;13.348;2023-02-01T09:43:33;2.75;;;1.20;;
7263;SDS011;3673;52.480;13.348;2023-02-01T09:46:19;4.93;;;1.80;;
7263;SDS011;3673;52.480;13.348;2023-02-01T09:48:52;5.05;;;1.25;;
7263;SDS011;3673;52.480;13.348;2023-02-01T09:51:23;9.02;;;1.70;;
7263;SDS011;3673;52.480;13.348;2023-02-01T09:53:58;5.00;;;2.00;;
7263;SDS011;3673;52.480;13.348;2023-02-01T09:56:32;4.13;;;1.88;;
7263;SDS011;3673;52.480;13.348;2023-02-01T09:59:08;5.70;;;2.13;;
7263;SDS011;3673;52.480;13.348;2023-02-01T10:01:46;4.70;;;1.80;;
7263;SDS011;3673;52.480;13.348;2023-02-01T10:04:14;4.45;;;2.88;;
7263;SDS011;3673;52.480;13.348;2023-02-01T10:06:51;5.88;;;2.15;;
7263;SDS011;3673;52.480;13.348;2023-02-01T10:09:35;3.08;;;1.98;;
7263;SDS011;3673;52.480;13.348;2023-02-01T10:15:35;7.30;;;1.67;;
7263;SDS011;3673;52.480;13.348;2023-02-01T10:18:42;5.32;;;1.83;;
7263;SDS011;3673;52.480;13.348;2023-02-01T10:21:25;7.15;;;1.85;;
7263;SDS011;3673;52.480;13.348;2023-02-01T10:24:11;6.20;;;1.92;;
7263;SDS011;3673;52.480;13.348;2023-02-01T10:26:51;4.43;;;1.35;;
7263;SDS011;3673;52.480;13.348;2023-02-01T10:29:24;7.15;;;1.77;;
7263;SDS011;3673;52.480;13.348;2023-02-01T10:34:29;4.90;;;1.38;;
7263;SDS011;3673;52.480;13.348;2023-02-01T10:37:01;3.47;;;1.15;;
7263;SDS011;3673;52.480;13.348;2023-02-01T10:39:45;5.65;;;1.58;;
7263;SDS011;3673;52.480;13.348;2023-02-01T10:42:13;5.18;;;1.73;;
7263;SDS011;3673;52.480;13.348;2023-02-01T10:44:42;5.93;;;2.92;;
7263;SDS011;3673;52.480;13.348;2023-02-01T10:47:13;9.05;;;1.90;;
7263;SDS011;3673;52.480;13.348;2023-02-01T10:49:41;4.13;;;1.35;;
7263;SDS011;3673;52.480;13.348;2023-02-01T10:52:16;7.72;;;2.15;;
7263;SDS011;3673;52.480;13.348;2023-02-01T10:54:48;4.25;;;1.52;;
7263;SDS011;3673;52.480;13.348;2023-02-01T10:57:19;7.88;;;1.70;;
7263;SDS011;3673;52.480;13.348;2023-02-01T10:59:50;2.10;;;0.95;;
7263;SDS011;3673;52.480;13.348;2023-02-01T11:02:25;4.25;;;1.38;;
7263;SDS011;3673;52.480;13.348;2023-02-01T11:04:58;10.00;;;1.67;;
7263;SDS011;3673;52.480;13.348;2023-02-01T11:07:29;5.88;;;1.50;;
7263;SDS011;3673;52.480;13.348;2023-02-01T11:09:58;9.20;;;1.90;;
7263;SDS011;3673;52.480;13.348;2023-02-01T11:12:26;14.20;;;1.80;;
7263;SDS011;3673;52.480;13.348;2023-02-01T11:14:57;8.20;;;2.30;;
7263;SDS011;3673;52.480;13.348;2023-02-01T11:17:40;13.35;;;2.00;;
7263;SDS011;3673;52.480;13.348;2023-02-01T11:20:15;6.82;;;1.95;;
7263;SDS011;3673;52.480;13.348;2023-02-01T11:22:47;8.45;;;1.80;;
7263;SDS011;3673;52.480;13.348;2023-02-01T11:25:20;11.05;;;2.20;;
7263;SDS011;3673;52.480;13.348;2023-02-01T11:27:48;6.00;;;1.35;;
7263;SDS011;3673;52.480;13.348;2023-02-01T11:30:17;8.27;;;1.85;;
7263;SDS011;3673;52.480;13.348;2023-02-01T11:32:48;5.13;;;1.60;;
7263;SDS011;3673;52.480;13.348;2023-02-01T11:35:17;11.20;;;2.15;;
7263;SDS011;3673;52.480;13.348;2023-02-01T11:37:48;6.47;;;1.77;;
7263;SDS011;3673;52.480;13.348;2023-02-01T11:40:25;12.05;;;2.10;;
7263;SDS011;3673;52.480;13.348;2023-02-01T11:42:54;6.15;;;1.85;;
7263;SDS011;3673;52.480;13.348;2023-02-01T11:45:25;7.75;;;2.00;;
7263;SDS011;3673;52.480;13.348;2023-02-01T11:47:54;15.43;;;3.35;;
7263;SDS011;3673;52.480;13.348;2023-02-01T11:50:25;11.70;;;2.45;;
7263;SDS011;3673;52.480;13.348;2023-02-01T11:53:15;8.85;;;1.75;;
7263;SDS011;3673;52.480;13.348;2023-02-01T11:56:01;6.68;;;1.98;;
7263;SDS011;3673;52.480;13.348;2023-02-01T11:58:55;10.20;;;2.22;;
7263;SDS011;3673;52.480;13.348;2023-02-01T12:01:40;8.82;;;1.83;;
7263;SDS011;3673;52.480;13.348;2023-02-01T12:04:30;11.43;;;3.00;;
7263;SDS011;3673;52.480;13.348;2023-02-01T12:07:44;12.80;;;4.18;;
7263;SDS011;3673;52.480;13.348;2023-02-01T12:10:28;8.85;;;3.45;;
7263;SDS011;3673;52.480;13.348;2023-02-01T12:13:09;6.18;;;1.52;;
7263;SDS011;3673;52.480;13.348;2023-02-01T12:15:53;7.38;;;1.83;;
7263;SDS011;3673;52.480;13.348;2023-02-01T12:22:02;6.80;;;1.90;;
7263;SDS011;3673;52.480;13.348;2023-02-01T12:24:45;5.47;;;1.75;;
7263;SDS011;3673;52.480;13.348;2023-02-01T12:27:45;9.77;;;1.98;;
7263;SDS011;3673;52.480;13.348;2023-02-01T12:30:35;11.00;;;2.08;;
7263;SDS011;3673;52.480;13.348;2023-02-01T12:33:20;8.23;;;2.13;;
7263;SDS011;3673;52.480;13.348;2023-02-01T12:36:13;7.13;;;1.65;;
7263;SDS011;3673;52.480;13.348;2023-02-01T12:38:48;13.55;;;2.35;;
7263;SDS011;3673;52.480;13.348;2023-02-01T12:41:33;8.30;;;1.95;;
7263;SDS011;3673;52.480;13.348;2023-02-01T12:44:12;9.90;;;2.80;;
7263;SDS011;3673;52.480;13.348;2023-02-01T12:46:55;7.95;;;1.75;;
7263;SDS011;3673;52.480;13.348;2023-02-01T12:49:29;13.10;;;2.67;;
7263;SDS011;3673;52.480;13.348;2023-02-01T12:52:09;9.10;;;2.17;;
7263;SDS011;3673;52.480;13.348;2023-02-01T12:54:41;9.45;;;1.52;;
7263;SDS011;3673;52.480;13.348;2023-02-01T12:57:16;5.88;;;1.52;;
7263;SDS011;3673;52.480;13.348;2023-02-01T12:59:49;15.25;;;3.70;;
7263;SDS011;3673;52.480;13.348;2023-02-01T13:02:25;19.55;;;5.03;;
7263;SDS011;3673;52.480;13.348;2023-02-01T13:05:01;14.95;;;2.90;;
7263;SDS011;3673;52.480;13.348;2023-02-01T13:07:38;14.00;;;2.47;;
7263;SDS011;3673;52.480;13.348;2023-02-01T13:10:12;8.70;;;2.33;;
7263;SDS011;3673;52.480;13.348;2023-02-01T13:12:44;8.82;;;1.40;;
7263;SDS011;3673;52.480;13.348;2023-02-01T13:15:21;6.20;;;1.60;;
7263;SDS011;3673;52.480;13.348;2023-02-01T13:17:54;4.28;;;1.35;;
7263;SDS011;3673;52.480;13.348;2023-02-01T13:20:26;10.70;;;2.38;;
7263;SDS011;3673;52.480;13.348;2023-02-01T13:22:59;9.02;;;1.83;;
7263;SDS011;3673;52.480;13.348;2023-02-01T13:25:32;7.75;;;1.67;;
7263;SDS011;3673;52.480;13.348;2023-02-01T13:28:04;10.93;;;2.83;;
7263;SDS011;3673;52.480;13.348;2023-02-01T13:30:41;6.75;;;2.00;;
7263;SDS011;3673;52.480;13.348;2023-02-01T13:33:43;6.95;;;1.50;;
7263;SDS011;3673;52.480;13.348;2023-02-01T13:36:31;10.05;;;1.88;;
7263;SDS011;3673;52.480;13.348;2023-02-01T13:42:35;10.98;;;3.78;;
7263;SDS011;3673;52.480;13.348;2023-02-01T13:45:13;10.48;;;2.05;;
7263;SDS011;3673;52.480;13.348;2023-02-01T13:47:44;9.32;;;2.92;;
7263;SDS011;3673;52.480;13.348;2023-02-01T13:50:21;10.00;;;1.85;;
7263;SDS011;3673;52.480;13.348;2023-02-01T13:52:52;15.63;;;2.17;;
7263;SDS011;3673;52.480;13.348;2023-02-01T13:55:26;12.45;;;3.50;;
7263;SDS011;3673;52.480;13.348;2023-02-01T13:58:02;9.95;;;2.35;;
7263;SDS011;3673;52.480;13.348;2023-02-01T14:00:41;10.10;;;2.40;;
7263;SDS011;3673;52.480;13.348;2023-02-01T14:03:13;6.22;;;2.17;;
7263;SDS011;3673;52.480;13.348;2023-02-01T14:06:01;14.20;;;2.38;;
7263;SDS011;3673;52.480;13.348;2023-02-01T14:08:42;14.73;;;2.80;;
7263;SDS011;3673;52.480;13.348;2023-02-01T14:11:31;8.82;;;1.83;;
7263;SDS011;3673;52.480;13.348;2023-02-01T14:23:27;14.73;;;1.95;;
7263;SDS011;3673;52.480;13.348;2023-02-01T14:26:02;16.25;;;3.03;;
7263;SDS011;3673;52.480;13.348;2023-02-01T14:31:40;9.70;;;2.38;;
7263;SDS011;3673;52.480;13.348;2023-02-01T14:34:18;20.33;;;3.10;;
7263;SDS011;3673;52.480;13.348;2023-02-01T14:36:59;9.85;;;3.08;;
7263;SDS011;3673;52.480;13.348;2023-02-01T14:39:37;12.35;;;1.98;;
7263;SDS011;3673;52.480;13.348;2023-02-01T14:42:27;13.57;;;2.83;;
7263;SDS011;3673;52.480;13.348;2023-02-01T14:51:13;9.73;;;2.53;;
7263;SDS011;3673;52.480;13.348;2023-02-01T14:53:43;11.18;;;2.60;;
7263;SDS011;3673;52.480;13.348;2023-02-01T14:56:13;8.38;;;2.17;;
7263;SDS011;3673;52.480;13.348;2023-02-01T14:58:48;5.70;;;2.05;;
7263;SDS011;3673;52.480;13.348;2023-02-01T15:01:23;10.18;;;2.35;;
7263;SDS011;3673;52.480;13.348;2023-02-01T15:03:53;7.07;;;2.45;;
7263;SDS011;3673;52.480;13.348;2023-02-01T15:06:31;10.90;;;2.67;;
7263;SDS011;3673;52.480;13.348;2023-02-01T15:09:04;9.93;;;1.33;;
7263;SDS011;3673;52.480;13.348;2023-02-01T15:11:54;4.38;;;1.77;;
7263;SDS011;3673;52.480;13.348;2023-02-01T15:14:28;4.28;;;1.48;;
7263;SDS011;3673;52.480;13.348;2023-02-01T15:16:57;3.70;;;1.50;;
7263;SDS011;3673;52.480;13.348;2023-02-01T15:19:25;4.55;;;1.27;;
7263;SDS011;3673;52.480;13.348;2023-02-01T15:21:56;5.85;;;1.88;;
7263;SDS011;3673;52.480;13.348;2023-02-01T15:24:25;4.55;;;1.33;;
7263;SDS011;3673;52.480;13.348;2023-02-01T15:26:55;6.40;;;1.98;;
7263;SDS011;3673;52.480;13.348;2023-02-01T15:29:29;9.57;;;2.15;;
7263;SDS011;3673;52.480;13.348;2023-02-01T15:31:57;5.78;;;1.38;;
7263;SDS011;3673;52.480;13.348;2023-02-01T15:34:43;4.68;;;1.15;;
7263;SDS011;3673;52.480;13.348;2023-02-01T15:37:12;6.45;;;1.60;;
7263;SDS011;3673;52.480;13.348;2023-02-01T15:42:33;2.72;;;1.30;;
7263;SDS011;3673;52.480;13.348;2023-02-01T15:45:01;5.53;;;1.58;;
7263;SDS011;3673;52.480;13.348;2023-02-01T15:47:28;2.70;;;1.10;;
7263;SDS011;3673;52.480;13.348;2023-02-01T15:49:58;4.18;;;1.45;;
7263;SDS011;3673;52.480;13.348;2023-02-01T15:52:27;1.67;;;1.15;;
7263;SDS011;3673;52.480;13.348;2023-02-01T15:55:02;3.17;;;1.35;;